createdAt,value
2018-07-17T00:00:27.705Z,21.56
2018-07-17T00:01:03.353Z,21.51
2018-07-17T00:01:38.482Z,21.50
2018-07-17T00:02:13.824Z,21.53
2018-07-17T00:02:48.846Z,21.48
2018-07-17T00:03:24.153Z,21.42
2018-07-17T00:03:59.478Z,21.50
2018-07-17T00:04:34.869Z,21.53
2018-07-17T00:05:10.329Z,21.44
2018-07-17T00:05:46.124Z,21.48
2018-07-17T00:06:21.575Z,21.41
2018-07-17T00:06:56.810Z,21.42
2018-07-17T00:07:32.092Z,21.39
2018-07-17T00:08:07.332Z,21.35
2018-07-17T00:08:42.759Z,21.42
2018-07-17T00:09:18.079Z,21.38
2018-07-17T00:09:53.593Z,21.34
2018-07-17T00:10:29.027Z,21.34
2018-07-17T00:11:04.360Z,21.23
2018-07-17T00:11:39.766Z,21.21
2018-07-17T00:12:15.296Z,21.21
2018-07-17T00:12:50.641Z,21.20
2018-07-17T00:13:25.770Z,21.21
2018-07-17T00:14:00.883Z,21.32
2018-07-17T00:14:36.210Z,21.30
2018-07-17T00:15:11.669Z,21.32
2018-07-17T00:15:47.003Z,21.30
2018-07-17T00:16:22.112Z,21.26
2018-07-17T00:16:57.519Z,21.23
2018-07-17T00:17:33.096Z,21.17
2018-07-17T00:18:08.317Z,21.23
2018-07-17T00:18:43.830Z,21.08
2018-07-17T00:19:19.285Z,21.21
2018-07-17T00:19:54.886Z,21.20
2018-07-17T00:20:30.826Z,21.27
2018-07-17T00:21:06.143Z,21.17
2018-07-17T00:21:41.752Z,21.19
2018-07-17T00:22:17.067Z,21.21
2018-07-17T00:22:52.548Z,21.17
2018-07-17T00:23:28.183Z,21.13
2018-07-17T00:24:03.405Z,21.16
2018-07-17T00:24:40.142Z,21.17
2018-07-17T00:25:16.074Z,21.16
2018-07-17T00:25:51.757Z,21.09
2018-07-17T00:26:27.390Z,21.06
2018-07-17T00:27:02.504Z,21.08
2018-07-17T00:27:37.930Z,21.06
2018-07-17T00:28:13.343Z,20.95
2018-07-17T00:28:48.844Z,21.08
2018-07-17T00:29:24.066Z,21.06
2018-07-17T00:29:58.970Z,21.06
2018-07-17T00:30:34.193Z,21.08
2018-07-17T00:31:09.576Z,21.04
2018-07-17T00:31:45.082Z,21.01
2018-07-17T00:32:20.444Z,20.96
2018-07-17T00:32:55.737Z,21.01
2018-07-17T00:33:30.968Z,21.06
2018-07-17T00:34:06.355Z,20.99
2018-07-17T00:34:41.790Z,21.01
2018-07-17T00:35:16.921Z,21.02
2018-07-17T00:35:52.215Z,21.01
2018-07-17T00:36:27.660Z,20.98
2018-07-17T00:37:03.168Z,20.91
2018-07-17T00:37:38.379Z,20.95
2018-07-17T00:38:14.137Z,20.89
2018-07-17T00:38:49.829Z,20.96
2018-07-17T00:39:25.088Z,20.98
2018-07-17T00:40:00.823Z,20.89
2018-07-17T00:40:36.437Z,20.98
2018-07-17T00:41:12.056Z,20.90
2018-07-17T00:41:47.454Z,20.93
2018-07-17T00:42:23.069Z,20.91
2018-07-17T00:42:58.366Z,20.89
2018-07-17T00:43:33.493Z,20.86
2018-07-17T00:44:08.812Z,20.89
2018-07-17T00:44:44.534Z,20.86
2018-07-17T00:45:19.873Z,20.87
2018-07-17T00:45:55.163Z,20.83
2018-07-17T00:46:30.673Z,20.89
2018-07-17T00:47:06.005Z,20.83
2018-07-17T00:47:41.223Z,20.86
2018-07-17T00:48:16.846Z,20.80
2018-07-17T00:48:52.228Z,20.81
2018-07-17T00:49:27.558Z,20.74
2018-07-17T00:50:02.868Z,20.80
2018-07-17T00:50:38.209Z,20.74
2018-07-17T00:51:13.738Z,20.83
2018-07-17T00:51:48.933Z,20.86
2018-07-17T00:52:24.374Z,20.79
2018-07-17T00:52:59.573Z,20.74
2018-07-17T00:53:34.988Z,20.77
2018-07-17T00:54:10.136Z,20.76
2018-07-17T00:54:45.490Z,20.69
2018-07-17T00:55:21.079Z,20.69
2018-07-17T00:55:56.297Z,20.69
2018-07-17T00:56:31.744Z,20.77
2018-07-17T00:57:07.088Z,20.69
2018-07-17T00:57:42.546Z,20.53
2018-07-17T00:58:18.673Z,20.58
2018-07-17T00:58:53.832Z,20.61
2018-07-17T00:59:28.990Z,20.59
2018-07-17T01:00:04.451Z,20.61
2018-07-17T01:00:41.008Z,20.68
2018-07-17T01:01:16.257Z,20.64
2018-07-17T01:01:51.581Z,20.59
2018-07-17T01:02:26.938Z,20.62
2018-07-17T01:03:02.380Z,20.54
2018-07-17T01:03:38.139Z,20.68
2018-07-17T01:04:13.881Z,20.49
2018-07-17T01:04:49.570Z,20.54
2018-07-17T01:05:25.212Z,20.61
2018-07-17T01:06:00.437Z,20.62
2018-07-17T01:06:35.886Z,20.59
2018-07-17T01:07:11.116Z,20.50
2018-07-17T01:07:46.566Z,20.56
2018-07-17T01:08:22.289Z,20.54
2018-07-17T01:08:57.540Z,20.61
2018-07-17T01:09:32.996Z,20.54
2018-07-17T01:10:08.340Z,20.64
2018-07-17T01:10:44.374Z,20.50
2018-07-17T01:11:19.798Z,20.56
2018-07-17T01:11:55.238Z,20.53
2018-07-17T01:12:30.508Z,20.50
2018-07-17T01:13:05.733Z,20.53
2018-07-17T01:13:41.064Z,20.47
2018-07-17T01:14:16.386Z,20.43
2018-07-17T01:14:52.141Z,20.53
2018-07-17T01:15:27.467Z,20.59
2018-07-17T01:16:02.909Z,20.54
2018-07-17T01:16:38.498Z,20.47
2018-07-17T01:17:14.029Z,20.54
2018-07-17T01:17:49.378Z,20.56
2018-07-17T01:18:24.641Z,20.50
2018-07-17T01:18:59.862Z,20.46
2018-07-17T01:19:35.447Z,20.39
2018-07-17T01:20:11.132Z,20.50
2018-07-17T01:20:47.493Z,20.53
2018-07-17T01:21:23.235Z,20.46
2018-07-17T01:21:58.543Z,20.42
2018-07-17T01:22:33.946Z,20.47
2018-07-17T01:23:09.085Z,20.46
2018-07-17T01:23:44.627Z,20.50
2018-07-17T01:24:19.864Z,20.41
2018-07-17T01:24:55.233Z,20.43
2018-07-17T01:25:30.911Z,20.46
2018-07-17T01:26:06.347Z,20.42
2018-07-17T01:26:41.896Z,20.42
2018-07-17T01:27:17.389Z,20.49
2018-07-17T01:27:52.815Z,20.42
2018-07-17T01:28:28.132Z,20.41
2018-07-17T01:29:03.927Z,20.41
2018-07-17T01:29:39.193Z,20.47
2018-07-17T01:30:14.638Z,20.42
2018-07-17T01:30:49.948Z,20.43
2018-07-17T01:31:25.374Z,20.38
2018-07-17T01:32:01.061Z,20.39
2018-07-17T01:32:36.500Z,20.35
2018-07-17T01:33:11.990Z,20.31
2018-07-17T01:33:47.509Z,20.33
2018-07-17T01:34:22.716Z,20.28
2018-07-17T01:34:58.066Z,20.25
2018-07-17T01:35:33.495Z,20.30
2018-07-17T01:36:08.588Z,20.28
2018-07-17T01:36:44.198Z,20.24
2018-07-17T01:37:19.892Z,20.30
2018-07-17T01:37:55.229Z,20.23
2018-07-17T01:38:30.365Z,20.28
2018-07-17T01:39:05.964Z,20.18
2018-07-17T01:39:41.416Z,20.27
2018-07-17T01:40:16.727Z,20.18
2018-07-17T01:40:51.951Z,20.16
2018-07-17T01:41:27.684Z,20.21
2018-07-17T01:42:02.857Z,20.18
2018-07-17T01:42:38.069Z,20.13
2018-07-17T01:43:13.362Z,20.18
2018-07-17T01:43:48.480Z,20.20
2018-07-17T01:44:24.098Z,20.20
2018-07-17T01:44:59.611Z,20.09
2018-07-17T01:45:35.135Z,20.16
2018-07-17T01:46:10.382Z,20.18
2018-07-17T01:46:47.029Z,20.09
2018-07-17T01:47:22.452Z,20.06
2018-07-17T01:47:57.824Z,20.25
2018-07-17T01:48:33.178Z,20.03
2018-07-17T01:49:08.761Z,20.06
2018-07-17T01:49:44.071Z,20.08
2018-07-17T01:50:19.504Z,20.05
2018-07-17T01:50:55.229Z,20.05
2018-07-17T01:51:30.900Z,20.10
2018-07-17T01:52:06.032Z,20.20
2018-07-17T01:52:41.451Z,20.12
2018-07-17T01:53:16.772Z,20.08
2018-07-17T01:53:52.968Z,20.09
2018-07-17T01:54:28.155Z,20.10
2018-07-17T01:55:03.998Z,20.05
2018-07-17T01:55:39.517Z,20.09
2018-07-17T01:56:15.044Z,20.06
2018-07-17T01:56:50.612Z,20.06
2018-07-17T01:57:25.863Z,20.18
2018-07-17T01:58:01.454Z,20.18
2018-07-17T01:58:38.350Z,20.23
2018-07-17T01:59:13.638Z,20.09
2018-07-17T01:59:49.282Z,20.23
2018-07-17T02:00:25.759Z,20.18
2018-07-17T02:01:02.862Z,20.21
2018-07-17T02:01:39.461Z,20.10
2018-07-17T02:02:15.035Z,20.08
2018-07-17T02:02:51.026Z,20.08
2018-07-17T02:03:26.442Z,20.23
2018-07-17T02:04:02.600Z,20.13
2018-07-17T02:04:37.884Z,20.06
2018-07-17T02:05:13.431Z,20.09
2018-07-17T02:05:49.801Z,20.06
2018-07-17T02:06:27.151Z,20.06
2018-07-17T02:07:04.234Z,20.12
2018-07-17T02:07:39.403Z,20.02
2018-07-17T02:08:14.619Z,20.02
2018-07-17T02:08:50.943Z,20.06
2018-07-17T02:09:26.908Z,20.02
2018-07-17T02:10:03.222Z,19.91
2018-07-17T02:10:38.916Z,19.97
2018-07-17T02:11:17.486Z,19.90
2018-07-17T02:11:52.731Z,19.95
2018-07-17T02:12:28.703Z,19.94
2018-07-17T02:13:04.512Z,19.93
2018-07-17T02:13:39.641Z,19.91
2018-07-17T02:14:15.285Z,19.98
2018-07-17T02:14:50.641Z,19.94
2018-07-17T02:15:27.063Z,19.97
2018-07-17T02:16:02.638Z,19.93
2018-07-17T02:16:38.834Z,19.93
2018-07-17T02:17:15.142Z,19.98
2018-07-17T02:17:50.745Z,19.86
2018-07-17T02:18:26.177Z,19.87
2018-07-17T02:19:01.542Z,19.93
2018-07-17T02:19:37.544Z,19.93
2018-07-17T02:20:13.032Z,19.91
2018-07-17T02:20:49.724Z,19.90
2018-07-17T02:21:25.220Z,19.94
2018-07-17T02:22:00.427Z,19.94
2018-07-17T02:22:36.833Z,19.91
2018-07-17T02:23:12.800Z,19.90
2018-07-17T02:23:48.970Z,19.83
2018-07-17T02:24:25.018Z,19.87
2018-07-17T02:25:00.544Z,19.88
2018-07-17T02:25:36.953Z,19.80
2018-07-17T02:26:12.345Z,19.84
2018-07-17T02:26:48.246Z,19.86
2018-07-17T02:27:23.659Z,19.79
2018-07-17T02:27:59.292Z,19.84
2018-07-17T02:28:34.311Z,19.90
2018-07-17T02:29:09.805Z,19.80
2018-07-17T02:29:45.238Z,19.80
2018-07-17T02:30:21.257Z,19.83
2018-07-17T02:30:57.670Z,19.73
2018-07-17T02:31:33.078Z,19.80
2018-07-17T02:32:08.420Z,19.78
2018-07-17T02:32:44.732Z,19.70
2018-07-17T02:33:21.919Z,19.75
2018-07-17T02:33:57.630Z,19.72
2018-07-17T02:34:33.113Z,19.70
2018-07-17T02:35:08.649Z,19.73
2018-07-17T02:35:45.455Z,19.72
2018-07-17T02:36:21.239Z,19.65
2018-07-17T02:36:57.204Z,19.68
2018-07-17T02:37:33.002Z,19.69
2018-07-17T02:38:08.519Z,19.65
2018-07-17T02:38:43.749Z,19.68
2018-07-17T02:39:19.160Z,19.65
2018-07-17T02:39:54.603Z,19.66
2018-07-17T02:40:31.701Z,19.60
2018-07-17T02:41:06.930Z,19.65
2018-07-17T02:41:42.052Z,19.72
2018-07-17T02:42:18.282Z,19.68
2018-07-17T02:42:54.285Z,19.65
2018-07-17T02:43:30.153Z,19.68
2018-07-17T02:44:05.738Z,19.63
2018-07-17T02:44:41.065Z,19.58
2018-07-17T02:45:16.477Z,19.63
2018-07-17T02:45:55.889Z,19.51
2018-07-17T02:46:31.524Z,19.54
2018-07-17T02:47:06.883Z,19.66
2018-07-17T02:47:43.398Z,19.51
2018-07-17T02:48:20.089Z,19.51
2018-07-17T02:48:55.326Z,19.54
2018-07-17T02:49:31.138Z,19.51
2018-07-17T02:50:06.900Z,19.60
2018-07-17T02:50:44.410Z,19.51
2018-07-17T02:51:19.819Z,19.54
2018-07-17T02:51:55.384Z,19.57
2018-07-17T02:52:30.679Z,19.54
2018-07-17T02:53:06.791Z,19.40
2018-07-17T02:53:47.191Z,19.50
2018-07-17T02:54:23.685Z,19.55
2018-07-17T02:54:58.920Z,19.40
2018-07-17T02:55:34.251Z,19.47
2018-07-17T02:56:11.229Z,19.53
2018-07-17T02:56:46.557Z,19.38
2018-07-17T02:57:21.755Z,19.43
2018-07-17T02:57:57.295Z,19.40
2018-07-17T02:58:32.495Z,19.39
2018-07-17T02:59:07.736Z,19.33
2018-07-17T02:59:43.538Z,19.40
2018-07-17T03:00:20.459Z,19.42
2018-07-17T03:00:57.169Z,19.50
2018-07-17T03:01:32.469Z,19.40
2018-07-17T03:02:07.857Z,19.38
2018-07-17T03:02:43.462Z,19.51
2018-07-17T03:03:19.081Z,19.46
2018-07-17T03:03:54.535Z,19.33
2018-07-17T03:04:29.655Z,19.50
2018-07-17T03:05:06.758Z,19.42
2018-07-17T03:05:44.315Z,19.42
2018-07-17T03:06:19.580Z,19.42
2018-07-17T03:06:55.518Z,19.50
2018-07-17T03:07:32.104Z,19.38
2018-07-17T03:08:07.223Z,19.39
2018-07-17T03:08:43.207Z,19.39
2018-07-17T03:09:18.714Z,19.38
2018-07-17T03:09:54.280Z,19.39
2018-07-17T03:10:30.595Z,19.43
2018-07-17T03:11:06.144Z,19.39
2018-07-17T03:11:42.132Z,19.48
2018-07-17T03:12:17.449Z,19.40
2018-07-17T03:12:53.412Z,19.35
2018-07-17T03:13:28.649Z,19.33
2018-07-17T03:14:04.896Z,19.38
2018-07-17T03:14:40.691Z,19.40
2018-07-17T03:15:16.132Z,19.39
2018-07-17T03:15:51.924Z,19.40
2018-07-17T03:16:26.917Z,19.35
2018-07-17T03:17:02.298Z,19.39
2018-07-17T03:17:37.896Z,19.40
2018-07-17T03:18:13.267Z,19.36
2018-07-17T03:18:49.005Z,19.40
2018-07-17T03:19:25.309Z,19.42
2018-07-17T03:20:01.735Z,19.53
2018-07-17T03:20:37.715Z,19.55
2018-07-17T03:21:13.135Z,19.54
2018-07-17T03:21:50.353Z,19.57
2018-07-17T03:22:25.840Z,19.58
2018-07-17T03:23:01.289Z,19.57
2018-07-17T03:23:36.691Z,19.51
2018-07-17T03:24:12.212Z,19.51
2018-07-17T03:24:48.016Z,19.57
2018-07-17T03:25:23.545Z,19.58
2018-07-17T03:25:59.571Z,19.54
2018-07-17T03:26:35.085Z,19.65
2018-07-17T03:27:10.432Z,19.65
2018-07-17T03:27:47.946Z,19.69
2018-07-17T03:28:23.070Z,19.61
2018-07-17T03:28:59.290Z,19.68
2018-07-17T03:29:35.263Z,19.61
2018-07-17T03:30:10.710Z,19.72
2018-07-17T03:30:46.843Z,19.68
2018-07-17T03:31:22.889Z,19.60
2018-07-17T03:31:59.900Z,19.63
2018-07-17T03:32:36.101Z,19.65
2018-07-17T03:33:11.326Z,19.60
2018-07-17T03:33:47.661Z,19.60
2018-07-17T03:34:23.070Z,19.60
2018-07-17T03:34:58.322Z,19.69
2018-07-17T03:35:34.023Z,19.51
2018-07-17T03:36:09.384Z,19.61
2018-07-17T03:36:45.629Z,19.65
2018-07-17T03:37:20.826Z,19.55
2018-07-17T03:37:57.829Z,19.54
2018-07-17T03:38:33.337Z,19.54
2018-07-17T03:39:09.320Z,19.51
2018-07-17T03:39:46.392Z,19.42
2018-07-17T03:40:22.035Z,19.39
2018-07-17T03:40:57.931Z,19.36
2018-07-17T03:41:33.136Z,19.40
2018-07-17T03:42:10.398Z,19.47
2018-07-17T03:42:45.852Z,19.42
2018-07-17T03:43:21.642Z,19.43
2018-07-17T03:43:58.328Z,19.46
2018-07-17T03:44:33.449Z,19.36
2018-07-17T03:45:10.146Z,19.39
2018-07-17T03:45:45.883Z,19.36
2018-07-17T03:46:22.018Z,19.39
2018-07-17T03:46:57.994Z,19.40
2018-07-17T03:47:33.380Z,19.38
2018-07-17T03:48:08.811Z,19.38
2018-07-17T03:48:44.321Z,19.38
2018-07-17T03:49:20.113Z,19.36
2018-07-17T03:49:56.428Z,19.32
2018-07-17T03:50:33.305Z,19.40
2018-07-17T03:51:08.561Z,19.39
2018-07-17T03:51:44.570Z,19.36
2018-07-17T03:52:19.752Z,19.31
2018-07-17T03:52:55.269Z,19.24
2018-07-17T03:53:31.474Z,19.42
2018-07-17T03:54:07.200Z,19.31
2018-07-17T03:54:43.820Z,19.31
2018-07-17T03:55:19.647Z,19.40
2018-07-17T03:55:55.282Z,19.31
2018-07-17T03:56:34.112Z,19.36
2018-07-17T03:57:09.351Z,19.33
2018-07-17T03:57:45.011Z,19.43
2018-07-17T03:58:20.416Z,19.32
2018-07-17T03:58:56.823Z,19.36
2018-07-17T03:59:32.242Z,19.36
2018-07-17T04:00:07.596Z,19.25
2018-07-17T04:00:45.779Z,19.36
2018-07-17T04:01:22.335Z,19.33
2018-07-17T04:01:58.719Z,19.35
2018-07-17T04:02:34.074Z,19.32
2018-07-17T04:03:09.673Z,19.38
2018-07-17T04:03:45.000Z,19.36
2018-07-17T04:04:21.165Z,19.39
2018-07-17T04:04:57.641Z,19.31
2018-07-17T04:05:33.089Z,19.35
2018-07-17T04:06:08.243Z,19.39
2018-07-17T04:06:43.396Z,19.42
2018-07-17T04:07:18.922Z,19.35
2018-07-17T04:07:54.841Z,19.36
2018-07-17T04:08:30.548Z,19.39
2018-07-17T04:09:06.734Z,19.43
2018-07-17T04:09:42.036Z,19.38
2018-07-17T04:10:17.205Z,19.39
2018-07-17T04:10:53.015Z,19.36
2018-07-17T04:11:28.824Z,19.38
2018-07-17T04:12:04.152Z,19.42
2018-07-17T04:12:41.632Z,19.33
2018-07-17T04:13:17.181Z,19.36
2018-07-17T04:13:53.959Z,19.33
2018-07-17T04:14:31.307Z,19.39
2018-07-17T04:15:08.366Z,19.38
2018-07-17T04:15:44.178Z,19.38
2018-07-17T04:16:19.602Z,19.28
2018-07-17T04:16:55.044Z,19.36
2018-07-17T04:17:31.284Z,19.32
2018-07-17T04:18:07.377Z,19.38
2018-07-17T04:18:44.513Z,19.31
2018-07-17T04:19:20.619Z,19.38
2018-07-17T04:19:56.074Z,19.31
2018-07-17T04:20:32.222Z,19.31
2018-07-17T04:21:07.560Z,19.39
2018-07-17T04:21:42.966Z,19.28
2018-07-17T04:22:18.208Z,19.31
2018-07-17T04:22:53.446Z,19.29
2018-07-17T04:23:28.846Z,19.39
2018-07-17T04:24:04.694Z,19.25
2018-07-17T04:24:40.121Z,19.36
2018-07-17T04:25:16.031Z,19.36
2018-07-17T04:25:53.939Z,19.39
2018-07-17T04:26:29.844Z,19.39
2018-07-17T04:27:05.867Z,19.35
2018-07-17T04:27:41.995Z,19.28
2018-07-17T04:28:17.684Z,19.40
2018-07-17T04:28:53.090Z,19.31
2018-07-17T04:29:28.462Z,19.38
2018-07-17T04:30:04.963Z,19.38
2018-07-17T04:30:42.679Z,19.40
2018-07-17T04:31:19.341Z,19.40
2018-07-17T04:31:56.613Z,19.39
2018-07-17T04:32:32.568Z,19.38
2018-07-17T04:33:07.995Z,19.46
2018-07-17T04:33:44.788Z,19.40
2018-07-17T04:34:20.727Z,19.43
2018-07-17T04:34:57.070Z,19.36
2018-07-17T04:35:33.441Z,19.38
2018-07-17T04:36:09.238Z,19.48
2018-07-17T04:36:45.623Z,19.38
2018-07-17T04:37:21.541Z,19.43
2018-07-17T04:37:57.489Z,19.51
2018-07-17T04:38:32.776Z,19.51
2018-07-17T04:39:09.626Z,19.55
2018-07-17T04:39:45.284Z,19.54
2018-07-17T04:40:20.964Z,19.54
2018-07-17T04:40:56.865Z,19.54
2018-07-17T04:41:32.660Z,19.55
2018-07-17T04:42:08.390Z,19.54
2018-07-17T04:42:43.875Z,19.60
2018-07-17T04:43:19.441Z,19.65
2018-07-17T04:43:54.767Z,19.66
2018-07-17T04:44:30.550Z,19.66
2018-07-17T04:45:06.296Z,19.68
2018-07-17T04:45:41.611Z,19.61
2018-07-17T04:46:16.967Z,19.58
2018-07-17T04:46:52.662Z,19.66
2018-07-17T04:47:29.578Z,19.70
2018-07-17T04:48:06.020Z,19.66
2018-07-17T04:48:42.685Z,19.75
2018-07-17T04:49:19.225Z,19.73
2018-07-17T04:49:55.064Z,19.70
2018-07-17T04:50:30.781Z,19.75
2018-07-17T04:51:06.796Z,19.75
2018-07-17T04:51:42.837Z,19.72
2018-07-17T04:52:19.345Z,19.78
2018-07-17T04:52:55.010Z,19.70
2018-07-17T04:53:30.701Z,19.72
2018-07-17T04:54:06.004Z,19.70
2018-07-17T04:54:42.030Z,19.78
2018-07-17T04:55:17.397Z,19.79
2018-07-17T04:55:53.494Z,19.76
2018-07-17T04:56:29.180Z,19.78
2018-07-17T04:57:04.196Z,19.75
2018-07-17T04:57:39.750Z,19.88
2018-07-17T04:58:15.913Z,19.84
2018-07-17T04:58:52.724Z,19.86
2018-07-17T04:59:28.721Z,19.87
2018-07-17T05:00:04.220Z,19.86
2018-07-17T05:00:39.688Z,19.90
2018-07-17T05:01:15.205Z,19.97
2018-07-17T05:01:50.537Z,19.79
2018-07-17T05:02:25.947Z,19.94
2018-07-17T05:03:01.740Z,19.95
2018-07-17T05:03:37.561Z,19.97
2018-07-17T05:04:12.810Z,19.97
2018-07-17T05:04:48.751Z,19.93
2018-07-17T05:05:24.104Z,19.97
2018-07-17T05:05:59.477Z,19.94
2018-07-17T05:06:34.730Z,19.95
2018-07-17T05:07:10.154Z,19.94
2018-07-17T05:07:45.683Z,19.91
2018-07-17T05:08:22.001Z,19.94
2018-07-17T05:08:57.720Z,20.06
2018-07-17T05:09:32.943Z,19.93
2018-07-17T05:10:09.252Z,20.03
2018-07-17T05:10:45.196Z,20.06
2018-07-17T05:11:20.666Z,20.09
2018-07-17T05:11:56.869Z,20.13
2018-07-17T05:12:32.204Z,20.05
2018-07-17T05:13:08.196Z,20.20
2018-07-17T05:13:44.056Z,20.15
2018-07-17T05:14:19.180Z,20.28
2018-07-17T05:14:55.088Z,20.38
2018-07-17T05:15:30.537Z,20.30
2018-07-17T05:16:07.130Z,20.41
2018-07-17T05:16:42.248Z,20.46
2018-07-17T05:17:18.621Z,20.50
2018-07-17T05:17:54.216Z,20.51
2018-07-17T05:18:29.800Z,20.56
2018-07-17T05:19:05.440Z,20.50
2018-07-17T05:19:40.838Z,20.51
2018-07-17T05:20:16.503Z,20.61
2018-07-17T05:20:52.824Z,20.59
2018-07-17T05:21:29.473Z,20.72
2018-07-17T05:22:06.384Z,20.71
2018-07-17T05:22:42.063Z,20.72
2018-07-17T05:23:18.187Z,20.79
2018-07-17T05:23:54.749Z,20.86
2018-07-17T05:24:30.948Z,20.83
2018-07-17T05:25:06.601Z,20.89
2018-07-17T05:25:46.746Z,20.87
2018-07-17T05:26:23.307Z,20.86
2018-07-17T05:26:59.091Z,20.89
2018-07-17T05:27:34.511Z,20.90
2018-07-17T05:28:09.820Z,20.96
2018-07-17T05:28:45.362Z,21.04
2018-07-17T05:29:23.091Z,20.99
2018-07-17T05:29:58.923Z,21.11
2018-07-17T05:30:34.583Z,21.09
2018-07-17T05:31:09.994Z,21.21
2018-07-17T05:31:45.389Z,21.23
2018-07-17T05:32:21.013Z,21.27
2018-07-17T05:32:57.023Z,21.23
2018-07-17T05:33:32.370Z,21.27
2018-07-17T05:34:08.239Z,21.39
2018-07-17T05:34:45.900Z,21.30
2018-07-17T05:35:21.836Z,21.38
2018-07-17T05:35:58.606Z,21.41
2018-07-17T05:36:34.029Z,21.45
2018-07-17T05:37:09.397Z,21.48
2018-07-17T05:37:45.005Z,21.48
2018-07-17T05:38:20.147Z,21.57
2018-07-17T05:38:56.077Z,21.63
2018-07-17T05:39:31.705Z,21.60
2018-07-17T05:40:06.938Z,21.56
2018-07-17T05:40:43.164Z,21.50
2018-07-17T05:41:18.751Z,21.56
2018-07-17T05:41:54.062Z,21.64
2018-07-17T05:42:29.812Z,21.61
2018-07-17T05:43:05.501Z,21.69
2018-07-17T05:43:40.800Z,21.67
2018-07-17T05:44:16.027Z,21.72
2018-07-17T05:44:51.906Z,21.74
2018-07-17T05:45:27.457Z,21.72
2018-07-17T05:46:03.010Z,21.88
2018-07-17T05:46:38.340Z,21.92
2018-07-17T05:47:13.994Z,21.98
2018-07-17T05:47:50.045Z,22.04
2018-07-17T05:48:25.374Z,22.02
2018-07-17T05:49:02.472Z,22.06
2018-07-17T05:49:37.913Z,22.16
2018-07-17T05:50:14.696Z,22.19
2018-07-17T05:50:49.905Z,22.20
2018-07-17T05:51:25.536Z,22.23
2018-07-17T05:52:02.173Z,22.29
2018-07-17T05:52:37.616Z,22.27
2018-07-17T05:53:13.420Z,22.23
2018-07-17T05:53:48.641Z,22.35
2018-07-17T05:54:24.109Z,22.44
2018-07-17T05:54:59.325Z,22.53
2018-07-17T05:55:35.662Z,22.53
2018-07-17T05:56:11.802Z,22.49
2018-07-17T05:56:47.158Z,22.46
2018-07-17T05:57:22.691Z,22.50
2018-07-17T05:57:58.211Z,22.59
2018-07-17T05:58:34.738Z,22.54
2018-07-17T05:59:10.964Z,22.56
2018-07-17T05:59:46.550Z,22.53
2018-07-17T06:00:21.987Z,22.49
2018-07-17T06:01:00.244Z,22.56
2018-07-17T06:01:35.811Z,22.52
2018-07-17T06:02:12.783Z,22.56
2018-07-17T06:02:48.344Z,22.68
2018-07-17T06:03:24.855Z,22.75
2018-07-17T06:04:00.671Z,22.80
2018-07-17T06:04:37.158Z,22.84
2018-07-17T06:05:12.492Z,22.94
2018-07-17T06:05:49.435Z,22.96
2018-07-17T06:06:24.970Z,23.02
2018-07-17T06:07:00.280Z,23.07
2018-07-17T06:07:36.525Z,23.14
2018-07-17T06:08:11.955Z,23.23
2018-07-17T06:08:48.137Z,23.40
2018-07-17T06:09:23.938Z,23.40
2018-07-17T06:10:00.358Z,23.55
2018-07-17T06:10:36.287Z,23.60
2018-07-17T06:11:11.906Z,23.65
2018-07-17T06:11:47.146Z,23.67
2018-07-17T06:12:22.797Z,23.57
2018-07-17T06:12:59.107Z,23.57
2018-07-17T06:13:34.568Z,23.65
2018-07-17T06:14:10.472Z,23.62
2018-07-17T06:14:46.002Z,23.60
2018-07-17T06:15:21.342Z,23.70
2018-07-17T06:15:57.067Z,23.58
2018-07-17T06:16:32.593Z,23.64
2018-07-17T06:17:07.800Z,23.64
2018-07-17T06:17:43.431Z,23.77
2018-07-17T06:18:19.195Z,23.79
2018-07-17T06:18:56.447Z,23.95
2018-07-17T06:19:31.909Z,24.05
2018-07-17T06:20:07.697Z,24.19
2018-07-17T06:20:44.998Z,24.05
2018-07-17T06:21:20.103Z,24.19
2018-07-17T06:21:55.494Z,24.24
2018-07-17T06:22:31.013Z,24.38
2018-07-17T06:23:06.552Z,24.37
2018-07-17T06:23:42.022Z,24.42
2018-07-17T06:24:17.515Z,24.61
2018-07-17T06:24:53.057Z,24.59
2018-07-17T06:25:28.403Z,24.53
2018-07-17T06:26:04.015Z,24.61
2018-07-17T06:26:39.650Z,24.56
2018-07-17T06:27:14.943Z,24.57
2018-07-17T06:27:50.466Z,24.75
2018-07-17T06:28:25.977Z,24.79
2018-07-17T06:29:01.675Z,24.79
2018-07-17T06:29:36.908Z,24.95
2018-07-17T06:30:12.256Z,24.95
2018-07-17T06:30:47.678Z,25.12
2018-07-17T06:31:22.981Z,25.30
2018-07-17T06:31:59.325Z,25.25
2018-07-17T06:32:34.649Z,25.38
2018-07-17T06:33:09.972Z,25.54
2018-07-17T06:33:46.013Z,25.42
2018-07-17T06:34:21.333Z,25.42
2018-07-17T06:34:56.673Z,25.34
2018-07-17T06:35:32.311Z,25.43
2018-07-17T06:36:07.710Z,25.54
2018-07-17T06:36:43.207Z,25.53
2018-07-17T06:37:18.645Z,25.67
2018-07-17T06:37:54.083Z,25.57
2018-07-17T06:38:29.499Z,25.68
2018-07-17T06:39:05.922Z,25.90
2018-07-17T06:39:41.383Z,25.91
2018-07-17T06:40:16.814Z,25.99
2018-07-17T06:40:54.547Z,26.21
2018-07-17T06:41:30.227Z,26.40
2018-07-17T06:42:09.055Z,26.42
2018-07-17T06:42:44.260Z,26.55
2018-07-17T06:43:19.565Z,26.64
2018-07-17T06:43:54.785Z,26.74
2018-07-17T06:44:30.253Z,26.89
2018-07-17T06:45:05.742Z,26.99
2018-07-17T06:45:44.392Z,27.13
2018-07-17T06:46:19.591Z,27.32
2018-07-17T06:46:55.016Z,27.54
2018-07-17T06:47:30.413Z,27.58
2018-07-17T06:48:05.854Z,27.50
2018-07-17T06:48:41.593Z,27.64
2018-07-17T06:49:16.842Z,27.74
2018-07-17T06:52:31.318Z,28.10
2018-07-17T06:53:06.520Z,28.13
2018-07-17T06:53:42.243Z,28.21
2018-07-17T06:54:17.816Z,28.11
2018-07-17T06:54:55.535Z,28.11
2018-07-17T06:55:30.934Z,28.21
2018-07-17T06:56:06.389Z,28.28
2018-07-17T06:56:41.710Z,28.41
2018-07-17T06:57:17.204Z,28.29
2018-07-17T06:57:52.707Z,28.48
2018-07-17T06:58:28.185Z,28.54
2018-07-17T06:59:03.527Z,28.48
2018-07-17T06:59:39.148Z,28.56
2018-07-17T07:00:14.690Z,28.54
2018-07-17T07:00:51.786Z,28.46
2018-07-17T07:01:28.284Z,28.32
2018-07-17T07:02:03.700Z,28.43
2018-07-17T07:02:39.114Z,28.54
2018-07-17T07:03:14.329Z,28.68
2018-07-17T07:03:49.569Z,28.85
2018-07-17T07:04:25.054Z,28.95
2018-07-17T07:05:00.401Z,29.10
2018-07-17T07:05:35.811Z,29.19
2018-07-17T07:06:11.013Z,29.31
2018-07-17T07:06:47.638Z,29.35
2018-07-17T07:07:24.116Z,29.40
2018-07-17T07:07:59.571Z,29.50
2018-07-17T07:08:35.013Z,29.68
2018-07-17T07:09:10.444Z,29.68
2018-07-17T07:09:47.357Z,29.65
2018-07-17T07:10:22.461Z,29.62
2018-07-17T07:10:57.796Z,29.79
2018-07-17T07:11:32.867Z,29.77
2018-07-17T07:12:08.285Z,29.79
2018-07-17T07:12:43.637Z,29.84
2018-07-17T07:13:19.438Z,29.70
2018-07-17T07:13:55.081Z,29.86
2018-07-17T07:14:30.626Z,29.94
2018-07-17T07:15:07.359Z,30.11
2018-07-17T07:15:44.460Z,30.11
2018-07-17T07:16:21.482Z,30.23
2018-07-17T07:16:57.113Z,30.31
2018-07-17T07:17:32.594Z,30.18
2018-07-17T07:18:08.226Z,30.08
2018-07-17T07:18:43.440Z,30.24
2018-07-17T07:19:18.754Z,30.15
2018-07-17T07:19:54.017Z,30.08
2018-07-17T07:20:29.315Z,30.12
2018-07-17T07:21:04.740Z,30.30
2018-07-17T07:21:40.159Z,30.37
2018-07-17T07:22:15.562Z,30.34
2018-07-17T07:22:51.974Z,30.38
2018-07-17T07:23:27.440Z,30.34
2018-07-17T07:24:02.694Z,30.12
2018-07-17T07:24:38.241Z,30.21
2018-07-17T07:25:13.553Z,30.31
2018-07-17T07:25:50.391Z,30.34
2018-07-17T07:26:26.087Z,30.45
2018-07-17T07:27:02.632Z,30.36
2018-07-17T07:27:37.950Z,30.46
2018-07-17T07:28:14.541Z,30.71
2018-07-17T07:28:49.972Z,30.61
2018-07-17T07:29:25.369Z,30.46
2018-07-17T07:30:00.692Z,30.45
2018-07-17T07:30:36.241Z,30.54
2018-07-17T07:31:12.346Z,30.74
2018-07-17T07:31:48.506Z,30.99
2018-07-17T07:32:23.696Z,31.05
2018-07-17T07:32:58.919Z,31.01
2018-07-17T07:33:34.653Z,30.89
2018-07-17T07:34:10.048Z,31.13
2018-07-17T07:34:45.409Z,31.17
2018-07-17T07:35:20.866Z,31.08
2018-07-17T07:35:56.077Z,31.24
2018-07-17T07:36:32.568Z,31.18
2018-07-17T07:37:07.888Z,31.09
2018-07-17T07:37:43.349Z,31.31
2018-07-17T07:38:18.664Z,31.67
2018-07-17T07:38:55.198Z,31.62
2018-07-17T07:39:30.839Z,31.68
2018-07-17T07:40:06.284Z,31.67
2018-07-17T07:40:41.825Z,31.82
2018-07-17T07:41:17.511Z,31.99
2018-07-17T07:41:53.173Z,32.06
2018-07-17T07:42:28.614Z,32.36
2018-07-17T07:43:05.421Z,32.29